Time;durP1;ratioP1;P1;durP2;ratioP2;P2;SDS_P1;SDS_P2;PMS_P1;PMS_P2;Temp;Humidity;BMP_temperature;BMP_pressure;BME280_temperature;BME280_humidity;BME280_pressure;Samples;Min_cycle;Max_cycle;Signal;HPM_P1;HPM_P2
2021/08/01 00:01:01;;;;;;;0.50;0.50;;;15.30;99.90;;;;;;4988734;28;20195;-81
2021/08/01 00:03:27;;;;;;;0.47;0.47;;;15.20;99.90;;;;;;4976282;28;20203;-82
2021/08/01 00:05:53;;;;;;;0.70;0.70;;;15.30;99.90;;;;;;4988835;28;20247;-82
2021/08/01 00:08:19;;;;;;;0.88;0.77;;;15.20;99.90;;;;;;4974088;28;20196;-83
2021/08/01 00:10:44;;;;;;;0.93;0.93;;;15.20;99.90;;;;;;4973468;28;20205;-82
2021/08/01 00:13:10;;;;;;;0.50;0.50;;;15.30;99.90;;;;;;4974823;28;20208;-82
2021/08/01 00:15:38;;;;;;;1.42;0.90;;;15.30;99.90;;;;;;5005437;28;20683;-82
2021/08/01 00:18:06;;;;;;;1.00;0.82;;;15.20;99.90;;;;;;4973717;28;20271;-81
2021/08/01 00:20:35;;;;;;;0.60;0.60;;;15.20;99.90;;;;;;4974466;28;20207;-81
2021/08/01 00:23:02;;;;;;;8.77;0.88;;;15.20;99.90;;;;;;4974896;28;20231;-81
2021/08/01 00:25:28;;;;;;;1.95;1.42;;;15.20;99.90;;;;;;4974398;28;20675;-82
2021/08/01 00:27:56;;;;;;;0.57;0.57;;;15.20;99.90;;;;;;4986964;28;20250;-82
2021/08/01 00:30:22;;;;;;;0.40;0.40;;;15.20;99.90;;;;;;4978134;28;20218;-82
2021/08/01 00:32:47;;;;;;;1.63;1.15;;;15.20;99.90;;;;;;4987333;28;20288;-81
2021/08/01 00:35:13;;;;;;;0.57;0.57;;;15.20;99.90;;;;;;4979250;28;20742;-81
2021/08/01 00:37:39;;;;;;;0.57;0.52;;;15.20;99.90;;;;;;4985928;28;20211;-82
2021/08/01 00:40:06;;;;;;;4.53;1.35;;;15.20;99.90;;;;;;4980622;28;20196;-82
2021/08/01 00:42:32;;;;;;;0.45;0.45;;;15.20;99.90;;;;;;4984516;28;20646;-82
2021/08/01 00:44:58;;;;;;;1.38;0.60;;;15.20;99.90;;;;;;4981078;28;20298;-82
2021/08/01 00:47:24;;;;;;;0.60;0.60;;;15.10;99.90;;;;;;4982284;28;20303;-82
2021/08/01 00:49:50;;;;;;;1.55;1.08;;;15.10;99.90;;;;;;4981230;28;20200;-82
2021/08/01 00:52:16;;;;;;;0.50;0.50;;;15.00;99.90;;;;;;4973279;28;20573;-82
2021/08/01 00:54:44;;;;;;;0.40;0.40;;;15.00;99.90;;;;;;4974037;28;20282;-82
2021/08/01 00:57:09;;;;;;;0.50;0.50;;;15.00;99.90;;;;;;4981066;28;20199;-82
2021/08/01 00:59:39;;;;;;;0.65;0.65;;;15.00;99.90;;;;;;4983746;28;20652;-82
2021/08/01 01:02:18;;;;;;;0.98;0.90;;;15.00;99.90;;;;;;4980981;28;20699;-82
2021/08/01 01:05:12;;;;;;;0.70;0.70;;;15.00;99.90;;;;;;4982678;28;20620;-82
2021/08/01 01:07:51;;;;;;;0.57;0.57;;;14.90;99.90;;;;;;5001507;28;20211;-82
2021/08/01 01:10:37;;;;;;;0.50;0.50;;;14.90;99.90;;;;;;4978272;28;20330;-82
2021/08/01 01:13:17;;;;;;;0.43;0.43;;;14.90;99.90;;;;;;4974176;28;20208;-81
2021/08/01 01:15:47;;;;;;;0.90;0.90;;;14.80;99.90;;;;;;4973351;28;20250;-82
2021/08/01 01:18:20;;;;;;;0.57;0.57;;;14.80;99.90;;;;;;4973031;28;20283;-82
2021/08/01 01:21:07;;;;;;;1.30;0.77;;;14.80;99.90;;;;;;4973733;28;20205;-82
2021/08/01 01:23:39;;;;;;;1.02;1.02;;;14.80;99.90;;;;;;5005306;28;20212;-82
2021/08/01 01:26:10;;;;;;;0.90;0.90;;;14.80;99.90;;;;;;4989654;28;20210;-82
2021/08/01 01:29:06;;;;;;;0.50;0.50;;;14.80;99.90;;;;;;4974267;28;20250;-82
2021/08/01 01:31:42;;;;;;;0.50;0.50;;;14.80;99.90;;;;;;4987228;28;20200;-82
2021/08/01 01:34:27;;;;;;;0.63;0.63;;;14.80;99.90;;;;;;4987911;28;20616;-82
2021/08/01 01:36:55;;;;;;;0.50;0.50;;;14.80;99.90;;;;;;4972192;28;20231;-82
2021/08/01 01:39:22;;;;;;;0.68;0.68;;;14.80;99.90;;;;;;4972629;28;20204;-83
2021/08/01 01:41:50;;;;;;;0.85;0.85;;;14.80;99.90;;;;;;4972483;28;20705;-82
2021/08/01 01:44:16;;;;;;;0.50;0.50;;;14.80;99.90;;;;;;4971160;28;20296;-82
2021/08/01 01:46:44;;;;;;;4.57;1.20;;;14.80;99.90;;;;;;4973201;28;20188;-82
2021/08/01 01:49:11;;;;;;;0.98;0.90;;;14.80;99.90;;;;;;5004693;28;20212;-82
2021/08/01 01:51:38;;;;;;;0.57;0.57;;;14.80;99.90;;;;;;4989811;28;20211;-82
2021/08/01 01:54:06;;;;;;;0.93;0.93;;;14.80;99.90;;;;;;4972741;28;20616;-82
2021/08/01 01:56:34;;;;;;;0.57;0.57;;;14.60;99.90;;;;;;4970179;28;20201;-82
2021/08/01 01:59:02;;;;;;;0.50;0.50;;;14.50;99.90;;;;;;4955622;28;20208;-82
2021/08/01 02:01:27;;;;;;;0.82;0.82;;;14.50;99.90;;;;;;4979126;28;20207;-82
2021/08/01 02:03:53;;;;;;;0.52;0.50;;;14.30;99.90;;;;;;5000105;28;20208;-81
2021/08/01 02:06:20;;;;;;;0.63;0.63;;;14.30;99.90;;;;;;4973425;28;20212;-82
2021/08/01 02:08:57;;;;;;;0.82;0.82;;;14.30;99.90;;;;;;4989406;28;20199;-81
2021/08/01 02:11:46;;;;;;;0.43;0.43;;;14.30;99.90;;;;;;4994204;28;20203;-82
2021/08/01 02:14:40;;;;;;;0.52;0.52;;;14.40;99.90;;;;;;4975088;28;20358;-82
2021/08/01 02:17:12;;;;;;;0.60;0.60;;;14.30;99.90;;;;;;4980059;28;20606;-82
2021/08/01 02:19:42;;;;;;;0.60;0.60;;;14.30;99.90;;;;;;4979048;28;20199;-82
2021/08/01 02:22:09;;;;;;;0.40;0.40;;;14.30;99.90;;;;;;5005562;28;20668;-81
2021/08/01 02:24:35;;;;;;;2.75;1.48;;;14.30;99.90;;;;;;4976429;28;20298;-81
2021/08/01 02:27:03;;;;;;;0.52;0.52;;;14.20;99.90;;;;;;4975852;28;20615;-81
2021/08/01 02:29:30;;;;;;;2.83;1.30;;;14.10;99.90;;;;;;4975103;28;20208;-81
2021/08/01 02:31:56;;;;;;;0.63;0.60;;;14.00;99.90;;;;;;4976737;28;20565;-80
2021/08/01 02:34:25;;;;;;;0.55;0.55;;;13.90;99.90;;;;;;4960019;28;20259;-82
2021/08/01 02:36:52;;;;;;;0.40;0.40;;;13.90;99.90;;;;;;5007842;28;20286;-81
2021/08/01 02:39:21;;;;;;;6.53;0.73;;;13.90;99.90;;;;;;5008694;28;20222;-82
2021/08/01 02:41:47;;;;;;;0.70;0.70;;;13.90;99.90;;;;;;4976601;28;20204;-84
2021/08/01 02:44:22;;;;;;;0.50;0.50;;;13.90;99.90;;;;;;4978010;28;20675;-81
2021/08/01 02:46:49;;;;;;;0.60;0.60;;;13.90;99.90;;;;;;4975486;28;20207;-81
2021/08/01 02:49:22;;;;;;;0.47;0.47;;;14.00;99.90;;;;;;4975512;28;20352;-81
2021/08/01 02:51:53;;;;;;;0.82;0.82;;;14.00;99.90;;;;;;4976494;28;20208;-81
2021/08/01 02:54:23;;;;;;;0.40;0.40;;;13.90;99.90;;;;;;4991207;28;20207;-82
2021/08/01 02:56:55;;;;;;;0.50;0.50;;;13.90;99.90;;;;;;4961658;28;20217;-81
2021/08/01 02:59:22;;;;;;;0.50;0.50;;;13.80;99.90;;;;;;5007881;28;20231;-82
2021/08/01 03:01:54;;;;;;;0.52;0.52;;;13.70;99.90;;;;;;4972645;28;20205;-81
2021/08/01 03:04:21;;;;;;;0.77;0.77;;;13.60;99.90;;;;;;4989384;28;20242;-82
2021/08/01 03:06:48;;;;;;;5.45;0.93;;;13.60;99.90;;;;;;4977414;28;20727;-81
2021/08/01 03:09:13;;;;;;;1.42;1.02;;;13.60;99.90;;;;;;5007462;28;20231;-81
2021/08/01 03:11:39;;;;;;;4.45;1.05;;;13.70;99.90;;;;;;4991923;28;20667;-81
2021/08/01 03:14:05;;;;;;;0.50;0.50;;;13.70;99.90;;;;;;4974829;28;20271;-81
2021/08/01 03:16:31;;;;;;;0.45;0.45;;;13.70;99.90;;;;;;4977144;28;20236;-81
2021/08/01 03:18:57;;;;;;;4.65;0.80;;;13.80;99.90;;;;;;4976098;28;20200;-81
2021/08/01 03:21:23;;;;;;;0.60;0.60;;;13.80;99.90;;;;;;4974633;28;20208;-81
2021/08/01 03:23:48;;;;;;;0.50;0.50;;;13.80;99.90;;;;;;4975088;28;20255;-81
2021/08/01 03:26:14;;;;;;;0.77;0.77;;;13.90;99.90;;;;;;4980400;28;20208;-81
2021/08/01 03:28:40;;;;;;;0.45;0.45;;;14.00;99.90;;;;;;4988057;28;20247;-81
2021/08/01 03:31:06;;;;;;;0.40;0.40;;;14.00;99.90;;;;;;4979503;28;20204;-81
2021/08/01 03:33:31;;;;;;;0.43;0.43;;;14.10;99.90;;;;;;4975539;28;20208;-82
2021/08/01 03:35:57;;;;;;;0.45;0.45;;;14.20;99.90;;;;;;4989477;28;20218;-81
2021/08/01 03:38:23;;;;;;;0.52;0.52;;;14.10;99.90;;;;;;4974405;28;20201;-82
2021/08/01 03:40:52;;;;;;;0.60;0.60;;;14.10;99.90;;;;;;4990958;28;20665;-81
2021/08/01 03:43:18;;;;;;;0.65;0.63;;;14.00;99.90;;;;;;4956668;28;20611;-81
2021/08/01 03:45:43;;;;;;;0.50;0.50;;;13.90;99.90;;;;;;4975463;28;20196;-82
2021/08/01 03:48:09;;;;;;;1.95;0.93;;;13.90;99.90;;;;;;4975934;28;20200;-83
2021/08/01 03:50:35;;;;;;;0.40;0.40;;;14.00;99.90;;;;;;4975067;28;20245;-81
2021/08/01 03:53:00;;;;;;;1.27;0.68;;;14.00;99.90;;;;;;4974384;28;20205;-82
2021/08/01 03:55:26;;;;;;;0.80;0.80;;;14.00;99.90;;;;;;5006655;28;20216;-82
2021/08/01 03:57:52;;;;;;;0.40;0.40;;;14.10;99.90;;;;;;4973949;28;20228;-81
2021/08/01 04:00:18;;;;;;;0.40;0.40;;;14.20;99.90;;;;;;5008721;28;20228;-82
2021/08/01 04:02:43;;;;;;;0.50;0.50;;;14.20;99.90;;;;;;4975047;28;20207;-81
2021/08/01 04:05:09;;;;;;;0.85;0.85;;;14.20;99.90;;;;;;4959024;28;20205;-81
2021/08/01 04:07:35;;;;;;;0.70;0.70;;;14.20;99.90;;;;;;4972844;28;20210;-81
2021/08/01 04:10:00;;;;;;;9.73;1.15;;;14.20;99.90;;;;;;4977594;28;20235;-81
2021/08/01 04:12:26;;;;;;;0.70;0.70;;;14.30;99.90;;;;;;4979169;28;20204;-81
2021/08/01 04:14:52;;;;;;;0.63;0.57;;;14.40;99.90;;;;;;4996094;28;20235;-81
2021/08/01 04:17:18;;;;;;;0.70;0.70;;;14.50;99.90;;;;;;4977411;28;20209;-81
2021/08/01 04:19:47;;;;;;;1.25;1.15;;;14.60;99.90;;;;;;4974010;28;20196;-81
2021/08/01 04:22:14;;;;;;;0.40;0.40;;;14.70;99.90;;;;;;4974859;28;20234;-82
2021/08/01 04:24:40;;;;;;;0.43;0.43;;;14.80;99.90;;;;;;4973683;28;20279;-81
2021/08/01 04:27:06;;;;;;;0.55;0.55;;;14.90;99.90;;;;;;4974879;28;20213;-81
2021/08/01 04:29:32;;;;;;;0.20;0.20;;;15.00;99.90;;;;;;4974522;28;20599;-80
2021/08/01 04:31:58;;;;;;;1.30;0.88;;;15.00;99.90;;;;;;4981693;28;20341;-81
2021/08/01 04:34:24;;;;;;;0.70;0.50;;;15.00;99.90;;;;;;4980992;28;20759;-82
2021/08/01 04:36:50;;;;;;;0.20;0.20;;;15.10;99.90;;;;;;4983467;28;20291;-81
2021/08/01 04:39:15;;;;;;;0.52;0.52;;;15.10;99.90;;;;;;4974449;28;20296;-81
2021/08/01 04:41:41;;;;;;;0.20;0.20;;;15.10;99.90;;;;;;4970928;28;20299;-81
2021/08/01 04:44:07;;;;;;;0.20;0.20;;;15.20;99.90;;;;;;4973839;28;20203;-81
2021/08/01 04:46:33;;;;;;;0.47;0.47;;;15.20;99.90;;;;;;4975656;28;20204;-81
2021/08/01 04:48:59;;;;;;;0.20;0.20;;;15.20;99.90;;;;;;4974301;28;20200;-81
2021/08/01 04:51:24;;;;;;;0.10;0.10;;;15.30;99.90;;;;;;4971636;28;20211;-81
2021/08/01 04:53:50;;;;;;;1.20;1.10;;;15.30;99.90;;;;;;4960662;28;20216;-81
2021/08/01 04:56:16;;;;;;;0.20;0.20;;;15.30;99.90;;;;;;4987866;28;20201;-81
2021/08/01 04:58:42;;;;;;;0.47;0.47;;;15.40;99.90;;;;;;4974365;28;20231;-82
2021/08/01 05:01:15;;;;;;;0.25;0.25;;;15.40;99.90;;;;;;4974027;28;20204;-82
2021/08/01 05:03:41;;;;;;;0.38;0.38;;;15.50;99.90;;;;;;4957592;28;20656;-82
2021/08/01 05:06:08;;;;;;;0.40;0.32;;;15.50;99.90;;;;;;4974073;28;20251;-82
2021/08/01 05:08:34;;;;;;;0.75;0.65;;;15.60;99.90;;;;;;4974163;28;21079;-81
2021/08/01 05:11:00;;;;;;;2.50;0.85;;;15.60;99.90;;;;;;4956737;28;20189;-81
2021/08/01 05:13:25;;;;;;;0.20;0.20;;;15.60;99.90;;;;;;4974941;28;20674;-81
2021/08/01 05:15:51;;;;;;;11.82;1.02;;;15.70;99.90;;;;;;4973903;28;20274;-81
2021/08/01 05:18:17;;;;;;;0.28;0.28;;;15.90;99.90;;;;;;4974153;28;20407;-81
2021/08/01 05:20:43;;;;;;;0.30;0.30;;;15.90;99.90;;;;;;4973641;28;20208;-81
2021/08/01 05:23:10;;;;;;;0.20;0.20;;;16.00;99.90;;;;;;4974145;28;20208;-81
2021/08/01 05:25:36;;;;;;;0.20;0.20;;;16.00;99.90;;;;;;4974978;28;20200;-79
2021/08/01 05:28:03;;;;;;;3.47;0.98;;;16.10;99.90;;;;;;4973760;28;20212;-81
2021/08/01 05:30:28;;;;;;;0.20;0.20;;;16.20;99.90;;;;;;4969511;28;20656;-81
2021/08/01 05:32:54;;;;;;;0.52;0.40;;;16.40;99.90;;;;;;4981809;28;20195;-81
2021/08/01 05:35:20;;;;;;;0.35;0.32;;;16.50;99.90;;;;;;4974653;28;20733;-82
2021/08/01 05:37:46;;;;;;;0.30;0.30;;;16.70;99.90;;;;;;4973753;28;20569;-81
2021/08/01 05:40:12;;;;;;;0.30;0.30;;;16.80;99.90;;;;;;4973783;28;20224;-81
2021/08/01 05:42:39;;;;;;;0.20;0.20;;;16.80;99.90;;;;;;4972333;28;20547;-73
2021/08/01 05:45:05;;;;;;;0.30;0.30;;;16.90;99.90;;;;;;4971714;28;20730;-75
2021/08/01 05:47:31;;;;;;;0.38;0.38;;;17.40;99.90;;;;;;4989933;28;20663;-75
2021/08/01 05:49:57;;;;;;;0.98;0.45;;;17.60;99.90;;;;;;4975405;28;20215;-77
2021/08/01 05:52:23;;;;;;;0.47;0.47;;;17.70;99.90;;;;;;4973347;28;20201;-77
2021/08/01 05:54:57;;;;;;;0.20;0.20;;;18.20;99.90;;;;;;4964476;28;20207;-78
2021/08/01 05:57:23;;;;;;;0.22;0.22;;;18.50;99.90;;;;;;4976476;28;20200;-77
2021/08/01 05:59:49;;;;;;;1.08;0.55;;;18.50;99.90;;;;;;4981294;28;20253;-78
2021/08/01 06:02:14;;;;;;;0.22;0.22;;;18.50;99.90;;;;;;5004522;28;20639;-77
2021/08/01 06:04:40;;;;;;;0.15;0.15;;;18.40;99.90;;;;;;4975901;28;20212;-77
2021/08/01 06:07:09;;;;;;;0.10;0.10;;;18.50;99.90;;;;;;4977418;28;20217;-78
2021/08/01 06:09:37;;;;;;;0.13;0.13;;;18.30;99.90;;;;;;4977381;28;20746;-78
2021/08/01 06:12:03;;;;;;;0.90;0.73;;;18.50;99.90;;;;;;4976261;28;20204;-78
2021/08/01 06:14:29;;;;;;;0.10;0.10;;;18.70;99.90;;;;;;4975715;28;20234;-79
2021/08/01 06:16:54;;;;;;;0.22;0.22;;;19.00;99.90;;;;;;4975948;28;20208;-78
2021/08/01 06:19:20;;;;;;;1.95;1.00;;;19.20;99.90;;;;;;4960116;28;20218;-78
2021/08/01 06:21:45;;;;;;;0.30;0.30;;;19.40;99.90;;;;;;4960359;28;20280;-78
2021/08/01 06:24:12;;;;;;;0.10;0.10;;;19.60;99.90;;;;;;4973576;28;20311;-80
2021/08/01 06:26:38;;;;;;;0.10;0.10;;;19.80;99.90;;;;;;4980235;28;20228;-80
2021/08/01 06:29:04;;;;;;;0.40;0.30;;;20.00;99.90;;;;;;4993618;28;20235;-80
2021/08/01 06:31:31;;;;;;;0.17;0.17;;;20.00;99.90;;;;;;4964845;28;20216;-79
2021/08/01 06:33:58;;;;;;;6.25;0.32;;;20.00;99.90;;;;;;5010259;28;20220;-79
2021/08/01 06:36:24;;;;;;;0.85;0.73;;;19.80;99.90;;;;;;4978858;28;20220;-78
2021/08/01 06:38:49;;;;;;;0.22;0.22;;;19.80;99.90;;;;;;4979078;28;20215;-79
2021/08/01 06:41:15;;;;;;;0.15;0.15;;;19.80;99.90;;;;;;4995125;28;20210;-79
2021/08/01 06:43:41;;;;;;;0.52;0.28;;;19.80;99.90;;;;;;4965540;28;20216;-79
2021/08/01 06:46:07;;;;;;;0.20;0.20;;;20.00;99.90;;;;;;5004549;28;20732;-79
2021/08/01 06:48:33;;;;;;;0.52;0.40;;;20.10;99.90;;;;;;4977510;28;20208;-79
2021/08/01 06:50:59;;;;;;;0.20;0.20;;;20.20;99.90;;;;;;5010020;28;20196;-79
2021/08/01 06:53:27;;;;;;;0.60;0.38;;;19.80;99.90;;;;;;4977922;28;20223;-79
2021/08/01 06:55:52;;;;;;;0.10;0.10;;;19.80;99.90;;;;;;4974641;28;20235;-79
2021/08/01 06:58:19;;;;;;;0.17;0.17;;;20.00;99.90;;;;;;4976580;28;20208;-78
2021/08/01 07:00:50;;;;;;;0.20;0.20;;;20.40;99.90;;;;;;4975146;28;20192;-80
2021/08/01 07:03:16;;;;;;;0.10;0.10;;;20.40;99.90;;;;;;4973289;28;20205;-79
2021/08/01 07:05:41;;;;;;;0.30;0.30;;;20.50;99.90;;;;;;4960479;28;20546;-80
2021/08/01 07:08:07;;;;;;;0.32;0.25;;;20.50;99.90;;;;;;4976418;28;20208;-80
2021/08/01 07:10:33;;;;;;;0.10;0.10;;;20.30;99.90;;;;;;4975924;28;20663;-79
2021/08/01 07:13:07;;;;;;;0.75;0.65;;;20.10;99.90;;;;;;5004108;28;20251;-81
2021/08/01 07:15:33;;;;;;;1.83;0.95;;;19.80;99.90;;;;;;4992198;28;20216;-81
2021/08/01 07:18:00;;;;;;;1.27;0.88;;;19.90;99.90;;;;;;4974071;28;20227;-80
2021/08/01 07:20:27;;;;;;;0.03;0.03;;;20.30;99.90;;;;;;4958260;28;20201;-80
2021/08/01 07:22:53;;;;;;;0.17;0.17;;;20.30;99.90;;;;;;4976959;28;20278;-77
2021/08/01 07:25:20;;;;;;;0.17;0.17;;;20.30;99.90;;;;;;4974509;28;20365;-78
2021/08/01 07:27:45;;;;;;;0.10;0.10;;;20.50;99.90;;;;;;4960262;28;20248;-77
2021/08/01 07:30:12;;;;;;;0.85;0.65;;;20.60;99.90;;;;;;4958815;28;20259;-78
2021/08/01 07:32:38;;;;;;;1.75;1.13;;;20.70;99.90;;;;;;4958575;28;20539;-77
2021/08/01 07:35:04;;;;;;;0.43;0.38;;;20.60;99.90;;;;;;4972360;28;20304;-78
2021/08/01 07:37:30;;;;;;;0.65;0.35;;;20.50;99.90;;;;;;4961083;28;20679;-84
2021/08/01 07:39:55;;;;;;;26.58;0.63;;;20.20;99.90;;;;;;4988374;28;20192;-85
2021/08/01 07:42:21;;;;;;;0.22;0.22;;;19.90;99.90;;;;;;4986315;28;20206;-84
2021/08/01 07:44:52;;;;;;;0.10;0.10;;;19.80;99.90;;;;;;4981500;28;20239;-85
2021/08/01 07:47:21;;;;;;;0.10;0.10;;;19.70;99.90;;;;;;4975623;28;20925;-85
2021/08/01 07:49:49;;;;;;;0.30;0.17;;;19.40;99.90;;;;;;4975739;28;20197;-85
2021/08/01 07:52:15;;;;;;;0.20;0.20;;;19.20;99.90;;;;;;4973040;28;20238;-85
2021/08/01 07:54:41;;;;;;;1.23;0.52;;;19.10;99.90;;;;;;4974178;28;20219;-86
2021/08/01 07:57:20;;;;;;;1.30;0.63;;;18.70;99.90;;;;;;4978731;28;20218;-85
2021/08/01 07:59:46;;;;;;;0.10;0.10;;;18.60;99.90;;;;;;4974048;28;20207;-86
2021/08/01 08:02:11;;;;;;;0.10;0.10;;;18.60;99.90;;;;;;4974401;28;20211;-86
2021/08/01 08:04:37;;;;;;;0.10;0.10;;;18.70;99.90;;;;;;4979697;28;20206;-84
2021/08/01 08:07:03;;;;;;;0.70;0.40;;;19.00;99.90;;;;;;4987043;28;20208;-85
2021/08/01 08:09:28;;;;;;;0.10;0.10;;;19.20;99.90;;;;;;4974112;28;20204;-85
2021/08/01 08:11:54;;;;;;;0.10;0.10;;;19.50;99.90;;;;;;4974117;28;20208;-85
2021/08/01 08:14:20;;;;;;;0.50;0.50;;;19.90;99.90;;;;;;4974175;28;20254;-85
2021/08/01 08:16:45;;;;;;;0.20;0.20;;;20.20;99.90;;;;;;4975407;28;20686;-84
2021/08/01 08:19:11;;;;;;;0.40;0.40;;;20.00;99.90;;;;;;4975901;28;20339;-84
2021/08/01 08:21:37;;;;;;;0.10;0.10;;;20.10;99.90;;;;;;5005038;28;20204;-84
2021/08/01 08:24:05;;;;;;;0.25;0.25;;;20.10;99.90;;;;;;4971930;28;20201;-84
2021/08/01 08:26:31;;;;;;;0.20;0.20;;;20.20;99.90;;;;;;4974634;28;20212;-85
2021/08/01 08:28:58;;;;;;;0.35;0.35;;;20.10;99.90;;;;;;4975798;28;20296;-85
2021/08/01 08:31:23;;;;;;;0.20;0.20;;;19.60;99.90;;;;;;5006268;28;20245;-84
2021/08/01 08:33:49;;;;;;;0.10;0.10;;;19.50;99.90;;;;;;4976702;28;20734;-85
2021/08/01 08:36:15;;;;;;;0.17;0.17;;;19.70;99.90;;;;;;5018081;28;20247;-84
2021/08/01 08:38:41;;;;;;;1.45;1.10;;;19.40;99.90;;;;;;4978250;28;20212;-84
2021/08/01 08:41:12;;;;;;;3.88;1.33;;;19.30;99.90;;;;;;4964598;28;20715;-84
2021/08/01 08:43:38;;;;;;;0.10;0.10;;;19.00;99.90;;;;;;4968672;28;20208;-84
2021/08/01 08:46:04;;;;;;;5.28;0.63;;;18.70;99.90;;;;;;4975148;28;20257;-84
2021/08/01 08:48:31;;;;;;;0.20;0.20;;;18.60;99.90;;;;;;4974640;28;20661;-85
2021/08/01 08:50:56;;;;;;;1.48;0.63;;;18.60;99.90;;;;;;4974980;28;20196;-85
2021/08/01 08:53:26;;;;;;;0.10;0.10;;;18.70;99.90;;;;;;4975557;28;20683;-84
2021/08/01 08:55:54;;;;;;;1.55;0.57;;;18.80;99.90;;;;;;4985885;28;20228;-85
2021/08/01 08:58:29;;;;;;;0.20;0.20;;;18.80;99.90;;;;;;4974165;28;20299;-84
2021/08/01 09:00:58;;;;;;;0.50;0.35;;;18.60;99.90;;;;;;4973458;28;20211;-85
2021/08/01 09:03:24;;;;;;;0.10;0.10;;;18.70;99.90;;;;;;4976009;28;20613;-84
2021/08/01 09:05:55;;;;;;;0.68;0.52;;;18.50;99.90;;;;;;5003981;28;20341;-83
2021/08/01 09:08:21;;;;;;;0.30;0.30;;;18.50;99.90;;;;;;4974350;28;20208;-85
2021/08/01 09:10:46;;;;;;;0.75;0.55;;;18.60;99.90;;;;;;4974334;28;20258;-82
2021/08/01 09:13:12;;;;;;;0.10;0.10;;;19.10;99.90;;;;;;4971893;28;20558;-82
2021/08/01 09:15:38;;;;;;;0.40;0.40;;;19.70;99.90;;;;;;4974050;28;20310;-82
2021/08/01 09:18:11;;;;;;;0.30;0.30;;;19.50;99.90;;;;;;4956627;28;20618;-83
2021/08/01 09:20:50;;;;;;;0.00;0.00;;;19.60;99.90;;;;;;4971672;28;20212;-82
2021/08/01 09:23:15;;;;;;;0.15;0.15;;;19.60;99.90;;;;;;4988297;28;20203;-82
2021/08/01 09:25:43;;;;;;;0.10;0.10;;;19.50;99.90;;;;;;5003821;28;20223;-85
2021/08/01 09:28:18;;;;;;;16.25;0.52;;;19.10;99.90;;;;;;4974945;28;20220;-80
2021/08/01 09:30:47;;;;;;;0.55;0.55;;;19.10;99.90;;;;;;4992912;28;20256;-80
2021/08/01 09:33:15;;;;;;;0.00;0.00;;;19.10;99.90;;;;;;4974320;28;20208;-80
2021/08/01 09:35:41;;;;;;;0.40;0.25;;;19.20;99.90;;;;;;5008539;28;20220;-79
2021/08/01 09:38:07;;;;;;;0.93;0.47;;;19.50;99.90;;;;;;4978298;28;20216;-79
2021/08/01 09:40:35;;;;;;;0.20;0.20;;;19.60;99.90;;;;;;4973257;28;20212;-82
2021/08/01 09:43:12;;;;;;;2.28;0.50;;;19.50;99.90;;;;;;4972581;28;20207;-81
2021/08/01 09:45:38;;;;;;;1.52;0.32;;;19.50;99.90;;;;;;4973278;28;20211;-81
2021/08/01 09:48:15;;;;;;;1.58;0.57;;;19.70;99.90;;;;;;4973010;28;20595;-81
2021/08/01 09:51:20;;;;;;;0.30;0.30;;;19.50;99.90;;;;;;4968975;28;20212;-82
2021/08/01 09:53:57;;;;;;;0.38;0.38;;;19.50;99.90;;;;;;4935516;29;20300;-81
2021/08/01 09:56:23;;;;;;;0.25;0.25;;;19.50;99.90;;;;;;4934305;29;20212;-81
2021/08/01 09:58:49;;;;;;;0.10;0.10;;;19.50;99.90;;;;;;4935024;29;20685;-82
2021/08/01 10:01:16;;;;;;;2.97;0.65;;;19.40;99.90;;;;;;4934668;29;20313;-81
2021/08/01 10:03:46;;;;;;;0.63;0.63;;;19.40;99.90;;;;;;4933095;29;20205;-80
2021/08/01 10:06:17;;;;;;;0.40;0.30;;;19.50;99.90;;;;;;4935122;29;20217;-80
2021/08/01 10:08:46;;;;;;;0.20;0.15;;;19.80;99.90;;;;;;4934260;29;20205;-81
2021/08/01 10:11:25;;;;;;;0.55;0.55;;;20.40;99.90;;;;;;4919316;29;20269;-81
2021/08/01 10:13:52;;;;;;;0.32;0.32;;;20.70;99.90;;;;;;4933677;28;20661;-81
2021/08/01 10:16:19;;;;;;;0.40;0.40;;;21.10;99.90;;;;;;4934083;29;20216;-81
2021/08/01 10:18:46;;;;;;;0.10;0.10;;;21.30;99.90;;;;;;4935462;29;20225;-80
2021/08/01 10:21:18;;;;;;;0.20;0.20;;;21.10;99.90;;;;;;4934353;29;20296;-81
2021/08/01 10:23:46;;;;;;;0.52;0.52;;;20.90;99.90;;;;;;4943018;28;20216;-82
2021/08/01 10:26:13;;;;;;;0.20;0.20;;;20.80;99.90;;;;;;4972238;28;20207;-81
2021/08/01 10:28:57;;;;;;;0.10;0.10;;;20.70;99.90;;;;;;4973453;28;20262;-82
2021/08/01 10:31:41;;;;;;;0.08;0.08;;;20.70;99.90;;;;;;4973131;28;20204;-81
2021/08/01 10:34:15;;;;;;;0.75;0.30;;;20.70;99.90;;;;;;4993155;28;20702;-82
2021/08/01 10:36:49;;;;;;;0.60;0.43;;;20.80;99.90;;;;;;4989308;28;20328;-82
2021/08/01 10:39:17;;;;;;;0.20;0.20;;;21.00;99.90;;;;;;4977039;28;20212;-82
2021/08/01 10:41:44;;;;;;;0.30;0.30;;;21.20;99.90;;;;;;4963730;28;20205;-82
2021/08/01 10:44:14;;;;;;;8.15;0.98;;;21.60;99.90;;;;;;4971772;28;20636;-80
2021/08/01 10:46:42;;;;;;;0.30;0.25;;;22.40;99.90;;;;;;4974531;28;20540;-81
2021/08/01 10:49:10;;;;;;;0.90;0.80;;;22.70;99.90;;;;;;4975832;28;20255;-80
2021/08/01 10:51:37;;;;;;;0.10;0.10;;;22.30;99.90;;;;;;5019468;28;20218;-81
2021/08/01 10:54:21;;;;;;;1.05;0.95;;;22.30;99.90;;;;;;4980469;28;20278;-79
2021/08/01 10:56:48;;;;;;;0.13;0.13;;;22.60;99.90;;;;;;4989189;28;20208;-80
2021/08/01 10:59:44;;;;;;;1.27;0.85;;;22.60;99.90;;;;;;4979957;28;20679;-79
2021/08/01 11:02:17;;;;;;;0.10;0.10;;;23.00;99.90;;;;;;4991226;28;20651;-80
2021/08/01 11:04:45;;;;;;;0.80;0.43;;;22.90;99.90;;;;;;4991660;28;20271;-81
2021/08/01 11:07:12;;;;;;;0.30;0.30;;;22.50;99.90;;;;;;4991084;28;20262;-81
2021/08/01 11:09:37;;;;;;;0.30;0.30;;;22.50;99.90;;;;;;4976308;28;20212;-80
2021/08/01 11:12:22;;;;;;;0.10;0.10;;;22.60;99.90;;;;;;4991873;28;20200;-82
2021/08/01 11:14:53;;;;;;;0.20;0.20;;;23.10;99.90;;;;;;4991943;28;20762;-74
2021/08/01 11:17:20;;;;;;;1.60;1.33;;;23.00;99.90;;;;;;4975373;28;20617;-74
2021/08/01 11:19:46;;;;;;;0.00;0.00;;;23.20;99.90;;;;;;4979559;28;20279;-73
2021/08/01 11:22:37;;;;;;;1.10;0.52;;;22.40;99.90;;;;;;4978604;28;20200;-76
2021/08/01 11:25:27;;;;;;;0.10;0.10;;;22.40;99.90;;;;;;4975307;28;20698;-76
2021/08/01 11:28:17;;;;;;;2.70;0.50;;;21.80;99.90;;;;;;4975306;28;20258;-78
2021/08/01 11:30:54;;;;;;;0.20;0.20;;;22.00;99.90;;;;;;4975573;28;20208;-79
2021/08/01 11:33:34;;;;;;;0.10;0.10;;;22.60;99.90;;;;;;4960301;28;20211;-76
2021/08/01 11:36:18;;;;;;;0.65;0.32;;;23.20;99.90;;;;;;4974690;28;20266;-76
2021/08/01 11:38:59;;;;;;;0.57;0.52;;;23.00;99.90;;;;;;4974465;28;20208;-74
2021/08/01 11:41:27;;;;;;;0.10;0.10;;;22.20;99.90;;;;;;4974494;28;20223;-74
2021/08/01 11:44:05;;;;;;;1.30;0.65;;;22.10;99.90;;;;;;4973141;28;20235;-75
2021/08/01 11:46:50;;;;;;;0.20;0.20;;;22.00;99.90;;;;;;4975553;28;20234;-76
2021/08/01 11:49:25;;;;;;;0.10;0.10;;;21.90;99.90;;;;;;4975734;28;20298;-77
2021/08/01 11:51:52;;;;;;;0.10;0.10;;;21.80;99.90;;;;;;4970977;28;20196;-74
2021/08/01 11:54:18;;;;;;;1.02;0.38;;;22.30;99.90;;;;;;4977162;28;20251;-74
2021/08/01 11:56:45;;;;;;;0.17;0.17;;;22.90;99.90;;;;;;4974837;28;20192;-76
2021/08/01 11:59:15;;;;;;;0.10;0.10;;;23.30;99.90;;;;;;4974259;28;20216;-79
2021/08/01 12:01:41;;;;;;;1.85;0.40;;;22.70;99.90;;;;;;4974267;28;20205;-75
2021/08/01 12:04:11;;;;;;;1.85;0.30;;;22.70;99.90;;;;;;4974314;28;20216;-75
2021/08/01 12:06:41;;;;;;;0.00;0.00;;;22.40;99.90;;;;;;4958403;28;20300;-76
2021/08/01 12:09:25;;;;;;;1.45;0.50;;;22.50;99.90;;;;;;4958261;28;20641;-80
2021/08/01 12:11:56;;;;;;;0.10;0.10;;;22.50;99.90;;;;;;4958833;28;20203;-79
2021/08/01 12:14:24;;;;;;;0.10;0.10;;;22.70;99.90;;;;;;4971331;28;20224;-79
2021/08/01 12:17:01;;;;;;;0.47;0.45;;;22.90;99.90;;;;;;4974116;28;20619;-74
2021/08/01 12:19:37;;;;;;;0.35;0.17;;;23.10;99.90;;;;;;4974051;28;20558;-75
2021/08/01 12:22:21;;;;;;;0.65;0.32;;;22.70;99.90;;;;;;4972704;28;20259;-75
2021/08/01 12:24:55;;;;;;;0.65;0.30;;;22.40;99.90;;;;;;4972723;28;20680;-76
2021/08/01 12:27:35;;;;;;;0.38;0.30;;;22.40;99.90;;;;;;4973967;28;20233;-77
2021/08/01 12:30:04;;;;;;;0.10;0.10;;;22.50;99.90;;;;;;4973906;28;20208;-76
2021/08/01 12:32:38;;;;;;;0.30;0.30;;;22.80;99.90;;;;;;4973848;28;20675;-75
2021/08/01 12:35:22;;;;;;;0.32;0.32;;;22.80;99.90;;;;;;4971111;28;20199;-75
2021/08/01 12:38:00;;;;;;;0.45;0.30;;;22.40;99.90;;;;;;4961593;28;20210;-75
2021/08/01 12:40:44;;;;;;;0.05;0.05;;;22.10;99.90;;;;;;4973177;28;20282;-76
2021/08/01 12:43:16;;;;;;;0.52;0.52;;;22.00;99.90;;;;;;4973689;28;20199;-76
2021/08/01 12:45:49;;;;;;;0.57;0.20;;;21.40;99.90;;;;;;4973173;28;20202;-76
2021/08/01 12:48:22;;;;;;;0.00;0.00;;;20.90;99.90;;;;;;5010285;28;20368;-76
2021/08/01 12:50:59;;;;;;;0.73;0.57;;;20.80;99.90;;;;;;4984735;28;20215;-77
2021/08/01 12:53:27;;;;;;;0.10;0.10;;;20.60;99.90;;;;;;5003332;28;20211;-78
2021/08/01 12:55:59;;;;;;;0.43;0.43;;;20.70;99.90;;;;;;4973679;28;20702;-81